createdAt,value
2022-12-25T02:35:38.482Z,10.57
2022-12-25T02:46:30.710Z,10.00
2022-12-25T02:51:48.205Z,9.40
2022-12-25T02:57:03.605Z,9.07
2022-12-25T03:02:15.076Z,9.63
2022-12-25T03:07:18.853Z,9.47
2022-12-25T03:12:24.944Z,9.97
2022-12-25T03:17:16.868Z,9.47
2022-12-25T03:22:47.923Z,10.73
2022-12-25T03:27:44.168Z,10.03
2022-12-25T03:33:18.083Z,9.27
2022-12-25T03:38:52.382Z,10.30
2022-12-25T03:44:11.783Z,9.83
2022-12-25T03:49:38.335Z,10.73
2022-12-25T03:54:52.211Z,10.17
2022-12-25T04:00:04.248Z,10.87
2022-12-25T04:05:14.692Z,10.37
2022-12-25T04:10:26.186Z,10.23
2022-12-25T04:15:36.627Z,11.47
2022-12-25T04:20:47.133Z,11.50
2022-12-25T04:25:57.378Z,11.17
2022-12-25T04:31:08.160Z,11.27
2022-12-25T04:36:08.875Z,11.23
2022-12-25T04:41:01.882Z,13.33
2022-12-25T04:45:59.629Z,12.53
2022-12-25T04:50:51.932Z,13.80
2022-12-25T04:55:43.950Z,14.17
2022-12-25T05:00:36.790Z,15.37
2022-12-25T05:05:29.408Z,14.40
2022-12-25T05:10:21.628Z,13.33
2022-12-25T05:15:13.741Z,15.27
2022-12-25T05:20:07.507Z,14.17
2022-12-25T05:24:59.925Z,16.50
2022-12-25T05:29:52.026Z,16.27
2022-12-25T05:34:43.889Z,14.00
2022-12-25T05:39:36.202Z,15.70
2022-12-25T05:44:28.021Z,14.97
2022-12-25T05:49:19.816Z,15.43
2022-12-25T05:54:12.076Z,15.10
2022-12-25T05:59:04.011Z,15.17
2022-12-25T06:03:57.492Z,14.87
2022-12-25T06:08:49.422Z,15.33
2022-12-25T06:13:42.947Z,15.63
2022-12-25T06:18:41.582Z,15.80
2022-12-25T06:23:33.664Z,14.37
2022-12-25T06:28:25.778Z,15.23
2022-12-25T06:33:17.577Z,14.43
2022-12-25T06:38:09.377Z,16.07
2022-12-25T06:43:01.607Z,15.47
2022-12-25T06:47:53.900Z,16.10
2022-12-25T06:52:45.962Z,15.77
2022-12-25T06:57:38.889Z,15.07
2022-12-25T07:02:33.793Z,14.50
2022-12-25T07:07:26.344Z,14.03
2022-12-25T07:12:25.025Z,13.63
2022-12-25T07:17:18.897Z,12.30
2022-12-25T07:22:11.394Z,12.90
2022-12-25T07:27:03.268Z,11.57
2022-12-25T07:31:55.371Z,10.77
2022-12-25T07:36:47.374Z,12.17
2022-12-25T07:41:40.510Z,10.97
2022-12-25T07:46:34.485Z,10.53
2022-12-25T07:51:26.883Z,12.53
2022-12-25T07:56:20.503Z,11.20
2022-12-25T08:01:25.898Z,10.23
2022-12-25T08:06:18.433Z,11.10
2022-12-25T08:11:11.153Z,10.20
2022-12-25T08:16:10.131Z,12.43
2022-12-25T08:21:14.111Z,9.90
2022-12-25T08:26:08.824Z,10.10
2022-12-25T08:31:10.161Z,10.47
2022-12-25T08:36:08.223Z,9.77
2022-12-25T08:41:01.389Z,10.00
2022-12-25T08:46:01.237Z,9.27
2022-12-25T08:50:54.320Z,10.97
2022-12-25T08:55:46.392Z,9.57
2022-12-25T09:00:39.191Z,9.60
2022-12-25T09:05:31.293Z,8.87
2022-12-25T09:10:23.868Z,9.23
2022-12-25T09:15:15.984Z,8.80
2022-12-25T09:20:11.050Z,10.07
2022-12-25T09:25:04.893Z,8.73
2022-12-25T09:29:57.720Z,8.23
2022-12-25T09:34:53.273Z,8.73
2022-12-25T09:39:46.581Z,7.40
2022-12-25T09:50:28.891Z,7.67
2022-12-25T09:55:32.523Z,7.50
2022-12-25T10:06:00.199Z,8.00
2022-12-25T10:11:16.596Z,6.50
2022-12-25T10:16:48.646Z,6.60
2022-12-25T10:21:43.467Z,6.63
2022-12-25T10:26:37.579Z,6.07
2022-12-25T10:31:36.127Z,6.10
2022-12-25T10:36:30.596Z,5.60
2022-12-25T10:42:04.796Z,5.93
2022-12-25T10:47:00.566Z,5.83
2022-12-25T10:51:53.728Z,5.67
2022-12-25T10:57:26.182Z,5.70
2022-12-25T11:02:40.298Z,6.20
2022-12-25T11:07:46.612Z,4.83
2022-12-25T11:12:46.616Z,4.40
2022-12-25T11:17:39.305Z,4.57
2022-12-25T11:22:31.252Z,3.73
2022-12-25T11:27:30.656Z,3.50
2022-12-25T11:32:49.660Z,4.20
2022-12-25T11:37:51.582Z,3.70
2022-12-25T11:43:19.816Z,3.80
2022-12-25T11:48:19.343Z,4.37
2022-12-25T11:53:22.899Z,4.83
2022-12-25T12:03:48.503Z,4.60
2022-12-25T12:08:41.496Z,3.90
2022-12-25T12:13:58.327Z,3.87
2022-12-25T12:18:50.922Z,3.03
2022-12-25T12:24:10.158Z,4.13
2022-12-25T12:29:05.764Z,3.20
2022-12-25T12:33:59.970Z,3.43
2022-12-25T12:38:52.469Z,3.57
2022-12-25T12:43:58.566Z,3.77
2022-12-25T12:48:58.391Z,3.03
2022-12-25T12:53:51.856Z,3.27
2022-12-25T12:58:51.869Z,3.53
2022-12-25T13:10:13.682Z,3.80
2022-12-25T13:15:14.657Z,3.17
2022-12-25T13:20:21.655Z,3.40
2022-12-25T13:30:30.367Z,3.50
2022-12-25T13:35:25.887Z,3.50
2022-12-25T13:40:28.508Z,4.93
2022-12-25T13:45:29.799Z,4.57
2022-12-25T13:55:35.881Z,5.33
2022-12-25T14:00:39.285Z,6.20
2022-12-25T14:05:43.381Z,6.27
2022-12-25T14:10:41.350Z,4.70
2022-12-25T14:15:37.939Z,4.93
2022-12-25T14:20:39.808Z,4.63
2022-12-25T14:25:43.571Z,6.27
2022-12-25T14:30:36.745Z,5.77
2022-12-25T14:35:29.606Z,6.40
2022-12-25T14:40:47.999Z,5.80
2022-12-25T14:45:40.582Z,4.83
2022-12-25T14:50:40.533Z,5.50
2022-12-25T14:55:34.827Z,4.70
2022-12-25T15:00:39.226Z,5.13
2022-12-25T15:05:39.247Z,5.20
2022-12-25T15:15:53.632Z,5.67
2022-12-25T15:20:47.730Z,5.10
2022-12-25T15:25:39.708Z,5.73
2022-12-25T15:30:35.105Z,7.07
2022-12-25T15:35:27.572Z,6.43
2022-12-25T15:40:21.649Z,7.27
2022-12-25T15:45:27.080Z,6.97
2022-12-25T15:50:21.129Z,7.00
2022-12-25T15:55:15.046Z,6.80
2022-12-25T16:00:14.028Z,6.53
2022-12-25T16:05:10.422Z,7.13
2022-12-25T16:10:03.280Z,8.33
2022-12-25T16:20:04.399Z,8.07
2022-12-25T16:25:00.006Z,9.03
2022-12-25T16:29:52.549Z,8.73
2022-12-25T16:34:46.214Z,8.37
2022-12-25T16:39:38.957Z,8.50
2022-12-25T16:44:31.345Z,10.27
2022-12-25T16:49:24.362Z,9.00
2022-12-25T16:59:24.227Z,9.00
2022-12-25T17:04:15.996Z,8.77
2022-12-25T17:09:07.913Z,8.73
2022-12-25T17:14:04.845Z,8.97
2022-12-25T17:24:29.996Z,9.47
2022-12-25T17:44:42.423Z,9.50
2022-12-25T17:49:34.892Z,8.87
2022-12-25T17:54:27.903Z,9.13
2022-12-25T17:59:20.664Z,8.97
2022-12-25T18:04:12.724Z,10.23
2022-12-25T18:09:10.031Z,9.80
2022-12-25T18:14:06.118Z,10.30
2022-12-25T18:19:00.288Z,10.10
2022-12-25T18:23:53.187Z,9.90
2022-12-25T18:28:46.073Z,10.87
2022-12-25T18:33:38.618Z,10.07
2022-12-25T18:38:32.330Z,11.77
2022-12-25T18:43:51.577Z,12.10
2022-12-25T18:48:45.891Z,11.37
2022-12-25T18:53:38.879Z,11.23
2022-12-25T18:58:33.589Z,12.03
2022-12-25T19:03:25.568Z,10.93
2022-12-25T19:08:17.712Z,10.87
2022-12-25T19:13:10.184Z,11.50
2022-12-25T19:18:03.025Z,11.13
2022-12-25T19:22:55.309Z,10.07
2022-12-25T19:27:52.473Z,10.37
2022-12-25T19:32:44.360Z,8.53
2022-12-25T19:37:44.191Z,8.17
2022-12-25T19:42:37.451Z,8.53
2022-12-25T19:52:35.568Z,9.17
2022-12-25T19:57:27.609Z,10.40
2022-12-25T20:02:21.096Z,11.90
2022-12-25T20:07:13.644Z,11.53
2022-12-25T20:12:06.389Z,12.07
2022-12-25T20:16:58.875Z,11.47
2022-12-25T20:21:50.936Z,11.23
2022-12-25T20:26:47.628Z,13.37
2022-12-25T20:31:42.498Z,12.30
2022-12-25T20:36:37.748Z,12.47
2022-12-25T20:41:30.617Z,13.30
2022-12-25T20:46:23.497Z,13.10
2022-12-25T20:51:20.559Z,11.90
2022-12-25T21:01:21.824Z,12.53
2022-12-25T21:06:13.919Z,11.57
2022-12-25T21:11:07.510Z,11.33
2022-12-25T21:16:00.349Z,9.53
2022-12-25T21:20:57.367Z,9.17
2022-12-25T21:25:50.383Z,8.70
2022-12-25T21:30:42.874Z,8.57
2022-12-25T21:35:38.923Z,8.87
2022-12-25T21:45:45.400Z,9.23
2022-12-25T21:50:56.503Z,9.07
2022-12-25T21:56:06.513Z,9.37
2022-12-25T22:01:06.525Z,8.30
2022-12-25T22:06:21.650Z,8.73
2022-12-25T22:11:41.080Z,8.33
2022-12-25T22:21:58.051Z,9.10
2022-12-25T22:26:49.977Z,8.63
2022-12-25T22:36:51.153Z,9.17
2022-12-25T22:41:43.234Z,9.30
2022-12-25T22:46:36.386Z,9.20
2022-12-25T22:51:29.517Z,8.80
2022-12-25T22:56:21.809Z,9.57
2022-12-25T23:01:15.105Z,11.37
2022-12-25T23:06:07.927Z,12.53
2022-12-25T23:11:05.130Z,9.97
2022-12-25T23:21:23.791Z,11.23
2022-12-25T23:26:20.053Z,9.17
2022-12-25T23:36:18.434Z,9.03
2022-12-25T23:41:10.803Z,9.57
2022-12-25T23:51:09.855Z,8.60
